sensor_id;sensor_type;location;lat;lon;timestamp;temperature;humidity
39677;DHT22;27789;50.840;4.386;2023-04-07T00:00:17;10.40;99.90
39677;DHT22;27789;50.840;4.386;2023-04-07T00:02:43;10.40;99.90
39677;DHT22;27789;50.840;4.386;2023-04-07T00:05:08;10.40;99.90
39677;DHT22;27789;50.840;4.386;2023-04-07T00:07:34;10.40;99.90
39677;DHT22;27789;50.840;4.386;2023-04-07T00:09:59;10.40;99.90
39677;DHT22;27789;50.840;4.386;2023-04-07T00:12:25;10.40;99.90
39677;DHT22;27789;50.840;4.386;2023-04-07T00:14:51;10.40;99.90
39677;DHT22;27789;50.840;4.386;2023-04-07T00:17:16;10.40;99.90
39677;DHT22;27789;50.840;4.386;2023-04-07T00:19:41;10.50;99.90
39677;DHT22;27789;50.840;4.386;2023-04-07T00:22:08;10.40;99.90
39677;DHT22;27789;50.840;4.386;2023-04-07T00:24:33;10.40;99.90
39677;DHT22;27789;50.840;4.386;2023-04-07T00:26:59;10.40;99.90
39677;DHT22;27789;50.840;4.386;2023-04-07T00:29:25;10.40;99.90
39677;DHT22;27789;50.840;4.386;2023-04-07T00:31:51;10.40;99.90
39677;DHT22;27789;50.840;4.386;2023-04-07T00:34:16;10.30;99.90
39677;DHT22;27789;50.840;4.386;2023-04-07T00:36:42;10.40;99.90
39677;DHT22;27789;50.840;4.386;2023-04-07T00:39:07;10.40;99.90
39677;DHT22;27789;50.840;4.386;2023-04-07T00:41:33;10.40;99.90
39677;DHT22;27789;50.840;4.386;2023-04-07T00:43:59;10.30;99.90
39677;DHT22;27789;50.840;4.386;2023-04-07T00:46:25;10.20;99.90
39677;DHT22;27789;50.840;4.386;2023-04-07T00:48:50;10.20;99.90
39677;DHT22;27789;50.840;4.386;2023-04-07T00:51:17;10.20;99.90
39677;DHT22;27789;50.840;4.386;2023-04-07T00:53:43;10.20;99.90
39677;DHT22;27789;50.840;4.386;2023-04-07T00:56:09;10.20;99.90
39677;DHT22;27789;50.840;4.386;2023-04-07T00:58:35;10.30;99.90
39677;DHT22;27789;50.840;4.386;2023-04-07T01:01:03;10.30;99.90
39677;DHT22;27789;50.840;4.386;2023-04-07T01:03:35;10.30;99.90
39677;DHT22;27789;50.840;4.386;2023-04-07T01:06:04;10.20;99.90
39677;DHT22;27789;50.840;4.386;2023-04-07T01:11:07;10.20;99.90
39677;DHT22;27789;50.840;4.386;2023-04-07T01:13:35;10.20;99.90
39677;DHT22;27789;50.840;4.386;2023-04-07T01:16:04;10.10;99.90
39677;DHT22;27789;50.840;4.386;2023-04-07T01:18:33;10.20;99.90
39677;DHT22;27789;50.840;4.386;2023-04-07T01:21:01;10.10;99.90
39677;DHT22;27789;50.840;4.386;2023-04-07T01:31:08;10.10;99.90
39677;DHT22;27789;50.840;4.386;2023-04-07T01:33:34;10.20;99.90
39677;DHT22;27789;50.840;4.386;2023-04-07T01:36:01;10.10;99.90
39677;DHT22;27789;50.840;4.386;2023-04-07T01:38:27;10.20;99.90
39677;DHT22;27789;50.840;4.386;2023-04-07T01:40:54;10.20;99.90
39677;DHT22;27789;50.840;4.386;2023-04-07T01:43:21;10.10;99.90
39677;DHT22;27789;50.840;4.386;2023-04-07T01:45:47;10.10;99.90
39677;DHT22;27789;50.840;4.386;2023-04-07T01:48:13;10.10;99.90
39677;DHT22;27789;50.840;4.386;2023-04-07T01:50:39;10.10;99.90
39677;DHT22;27789;50.840;4.386;2023-04-07T01:53:05;10.10;99.90
39677;DHT22;27789;50.840;4.386;2023-04-07T01:55:32;10.20;99.90
39677;DHT22;27789;50.840;4.386;2023-04-07T01:57:57;10.20;99.90
39677;DHT22;27789;50.840;4.386;2023-04-07T02:00:23;10.20;99.90
39677;DHT22;27789;50.840;4.386;2023-04-07T02:02:53;10.20;99.90
39677;DHT22;27789;50.840;4.386;2023-04-07T02:05:19;10.20;99.90
39677;DHT22;27789;50.840;4.386;2023-04-07T02:10:12;10.10;99.90
39677;DHT22;27789;50.840;4.386;2023-04-07T02:12:39;10.10;99.90
39677;DHT22;27789;50.840;4.386;2023-04-07T02:15:06;10.10;99.90
39677;DHT22;27789;50.840;4.386;2023-04-07T02:17:33;10.10;99.90
39677;DHT22;27789;50.840;4.386;2023-04-07T02:19:59;10.10;99.90
39677;DHT22;27789;50.840;4.386;2023-04-07T02:22:25;10.10;99.90
39677;DHT22;27789;50.840;4.386;2023-04-07T02:24:51;10.10;99.90
39677;DHT22;27789;50.840;4.386;2023-04-07T02:27:17;10.10;99.90
39677;DHT22;27789;50.840;4.386;2023-04-07T02:29:42;10.10;99.90
39677;DHT22;27789;50.840;4.386;2023-04-07T02:32:08;10.00;99.90
39677;DHT22;27789;50.840;4.386;2023-04-07T02:34:33;10.10;99.90
39677;DHT22;27789;50.840;4.386;2023-04-07T02:36:59;10.10;99.90
39677;DHT22;27789;50.840;4.386;2023-04-07T02:39:25;10.00;99.90
39677;DHT22;27789;50.840;4.386;2023-04-07T02:41:50;10.00;99.90
39677;DHT22;27789;50.840;4.386;2023-04-07T02:44:16;10.00;99.90
39677;DHT22;27789;50.840;4.386;2023-04-07T02:46:41;10.00;99.90
39677;DHT22;27789;50.840;4.386;2023-04-07T02:49:07;10.00;99.90
39677;DHT22;27789;50.840;4.386;2023-04-07T02:51:32;10.00;99.90
39677;DHT22;27789;50.840;4.386;2023-04-07T02:53:58;10.00;99.90
39677;DHT22;27789;50.840;4.386;2023-04-07T02:56:23;10.00;99.90
39677;DHT22;27789;50.840;4.386;2023-04-07T02:58:49;10.00;99.90
39677;DHT22;27789;50.840;4.386;2023-04-07T03:01:14;10.00;99.90
39677;DHT22;27789;50.840;4.386;2023-04-07T03:03:40;10.00;99.90
39677;DHT22;27789;50.840;4.386;2023-04-07T03:06:06;10.00;99.90
39677;DHT22;27789;50.840;4.386;2023-04-07T03:08:32;10.00;99.90
39677;DHT22;27789;50.840;4.386;2023-04-07T03:10:57;10.00;99.90
39677;DHT22;27789;50.840;4.386;2023-04-07T03:13:23;10.00;99.90
39677;DHT22;27789;50.840;4.386;2023-04-07T03:15:48;9.90;99.90
39677;DHT22;27789;50.840;4.386;2023-04-07T03:18:14;10.00;99.90
39677;DHT22;27789;50.840;4.386;2023-04-07T03:20:40;9.90;99.90
39677;DHT22;27789;50.840;4.386;2023-04-07T03:23:06;9.90;99.90
39677;DHT22;27789;50.840;4.386;2023-04-07T03:25:32;9.90;99.90
39677;DHT22;27789;50.840;4.386;2023-04-07T03:27:58;10.00;99.90
39677;DHT22;27789;50.840;4.386;2023-04-07T03:30:23;10.00;99.90
39677;DHT22;27789;50.840;4.386;2023-04-07T03:32:49;10.00;99.90
39677;DHT22;27789;50.840;4.386;2023-04-07T03:35:14;10.00;99.90
39677;DHT22;27789;50.840;4.386;2023-04-07T03:37:40;9.90;99.90
39677;DHT22;27789;50.840;4.386;2023-04-07T03:40:06;9.90;99.90
39677;DHT22;27789;50.840;4.386;2023-04-07T03:42:31;9.90;99.90
39677;DHT22;27789;50.840;4.386;2023-04-07T03:44:57;9.90;99.90
39677;DHT22;27789;50.840;4.386;2023-04-07T03:47:22;9.80;99.90
39677;DHT22;27789;50.840;4.386;2023-04-07T03:49:48;9.80;99.90
39677;DHT22;27789;50.840;4.386;2023-04-07T03:52:13;9.80;99.90
39677;DHT22;27789;50.840;4.386;2023-04-07T03:54:39;9.90;99.90
39677;DHT22;27789;50.840;4.386;2023-04-07T03:57:05;9.80;99.90
39677;DHT22;27789;50.840;4.386;2023-04-07T03:59:31;9.80;99.90
39677;DHT22;27789;50.840;4.386;2023-04-07T04:01:57;9.80;99.90
39677;DHT22;27789;50.840;4.386;2023-04-07T04:04:22;9.90;99.90
39677;DHT22;27789;50.840;4.386;2023-04-07T04:06:49;9.80;99.90
39677;DHT22;27789;50.840;4.386;2023-04-07T04:09:14;9.80;99.90
39677;DHT22;27789;50.840;4.386;2023-04-07T04:11:40;9.80;99.90
39677;DHT22;27789;50.840;4.386;2023-04-07T04:14:06;9.80;99.90
39677;DHT22;27789;50.840;4.386;2023-04-07T04:16:31;9.80;99.90
39677;DHT22;27789;50.840;4.386;2023-04-07T04:18:57;9.80;99.90
39677;DHT22;27789;50.840;4.386;2023-04-07T04:21:22;9.70;99.90
39677;DHT22;27789;50.840;4.386;2023-04-07T04:23:48;9.70;99.90
39677;DHT22;27789;50.840;4.386;2023-04-07T04:26:13;9.80;99.90
39677;DHT22;27789;50.840;4.386;2023-04-07T04:28:40;9.70;99.90
39677;DHT22;27789;50.840;4.386;2023-04-07T04:31:05;9.70;99.90
39677;DHT22;27789;50.840;4.386;2023-04-07T04:33:31;9.80;99.90
39677;DHT22;27789;50.840;4.386;2023-04-07T04:35:56;9.80;99.90
39677;DHT22;27789;50.840;4.386;2023-04-07T04:38:22;9.70;99.90
39677;DHT22;27789;50.840;4.386;2023-04-07T04:40:47;9.70;99.90
39677;DHT22;27789;50.840;4.386;2023-04-07T04:43:13;9.70;99.90
39677;DHT22;27789;50.840;4.386;2023-04-07T04:45:38;9.70;99.90
39677;DHT22;27789;50.840;4.386;2023-04-07T04:48:04;9.70;99.90
39677;DHT22;27789;50.840;4.386;2023-04-07T04:50:30;9.70;99.90
39677;DHT22;27789;50.840;4.386;2023-04-07T04:52:55;9.70;99.90
39677;DHT22;27789;50.840;4.386;2023-04-07T04:55:21;9.70;99.90
39677;DHT22;27789;50.840;4.386;2023-04-07T04:57:46;9.70;99.90
39677;DHT22;27789;50.840;4.386;2023-04-07T05:00:12;9.70;99.90
39677;DHT22;27789;50.840;4.386;2023-04-07T05:02:38;9.70;99.90
39677;DHT22;27789;50.840;4.386;2023-04-07T05:05:03;9.70;99.90
39677;DHT22;27789;50.840;4.386;2023-04-07T05:07:29;9.60;99.90
39677;DHT22;27789;50.840;4.386;2023-04-07T05:09:54;9.60;99.90
39677;DHT22;27789;50.840;4.386;2023-04-07T05:12:20;9.60;99.90
39677;DHT22;27789;50.840;4.386;2023-04-07T05:14:46;9.60;99.90
39677;DHT22;27789;50.840;4.386;2023-04-07T05:17:12;9.60;99.90
39677;DHT22;27789;50.840;4.386;2023-04-07T05:19:37;9.60;99.90
39677;DHT22;27789;50.840;4.386;2023-04-07T05:22:03;9.60;99.90
39677;DHT22;27789;50.840;4.386;2023-04-07T05:24:28;9.60;99.90
39677;DHT22;27789;50.840;4.386;2023-04-07T05:26:54;9.60;99.90
39677;DHT22;27789;50.840;4.386;2023-04-07T05:29:21;9.60;99.90
39677;DHT22;27789;50.840;4.386;2023-04-07T05:31:47;9.60;99.90
39677;DHT22;27789;50.840;4.386;2023-04-07T05:34:12;9.50;99.90
39677;DHT22;27789;50.840;4.386;2023-04-07T05:36:38;9.50;99.90
39677;DHT22;27789;50.840;4.386;2023-04-07T05:39:03;9.50;99.90
39677;DHT22;27789;50.840;4.386;2023-04-07T05:41:29;9.50;99.90
39677;DHT22;27789;50.840;4.386;2023-04-07T05:43:54;9.40;99.90
39677;DHT22;27789;50.840;4.386;2023-04-07T05:46:20;9.40;99.90
39677;DHT22;27789;50.840;4.386;2023-04-07T05:48:45;9.40;99.90
39677;DHT22;27789;50.840;4.386;2023-04-07T05:51:11;9.30;99.90
39677;DHT22;27789;50.840;4.386;2023-04-07T05:53:36;9.30;99.90
39677;DHT22;27789;50.840;4.386;2023-04-07T05:56:02;9.40;99.90
39677;DHT22;27789;50.840;4.386;2023-04-07T05:58:27;9.40;99.90
39677;DHT22;27789;50.840;4.386;2023-04-07T06:00:53;9.30;99.90
39677;DHT22;27789;50.840;4.386;2023-04-07T06:03:18;9.40;99.90
39677;DHT22;27789;50.840;4.386;2023-04-07T06:05:47;9.40;99.90
39677;DHT22;27789;50.840;4.386;2023-04-07T06:08:12;9.40;99.90
39677;DHT22;27789;50.840;4.386;2023-04-07T06:10:38;9.40;99.90
39677;DHT22;27789;50.840;4.386;2023-04-07T06:13:05;9.40;99.90
39677;DHT22;27789;50.840;4.386;2023-04-07T06:15:31;9.40;99.90
39677;DHT22;27789;50.840;4.386;2023-04-07T06:17:57;9.40;99.90
39677;DHT22;27789;50.840;4.386;2023-04-07T06:20:22;9.50;99.90
39677;DHT22;27789;50.840;4.386;2023-04-07T06:22:48;9.50;99.90
39677;DHT22;27789;50.840;4.386;2023-04-07T06:25:14;9.50;99.90
39677;DHT22;27789;50.840;4.386;2023-04-07T06:27:39;9.50;99.90
39677;DHT22;27789;50.840;4.386;2023-04-07T06:30:05;9.50;99.90
39677;DHT22;27789;50.840;4.386;2023-04-07T06:32:30;9.50;99.90
39677;DHT22;27789;50.840;4.386;2023-04-07T06:34:57;9.50;99.90
39677;DHT22;27789;50.840;4.386;2023-04-07T06:37:23;9.50;99.90
39677;DHT22;27789;50.840;4.386;2023-04-07T06:39:51;9.50;99.90
39677;DHT22;27789;50.840;4.386;2023-04-07T06:42:16;9.50;99.90
39677;DHT22;27789;50.840;4.386;2023-04-07T06:44:42;9.60;99.90
39677;DHT22;27789;50.840;4.386;2023-04-07T06:47:07;9.60;99.90
39677;DHT22;27789;50.840;4.386;2023-04-07T06:49:33;9.70;99.90
39677;DHT22;27789;50.840;4.386;2023-04-07T06:51:59;9.80;99.90
39677;DHT22;27789;50.840;4.386;2023-04-07T06:54:24;10.00;99.90
39677;DHT22;27789;50.840;4.386;2023-04-07T06:56:50;10.00;99.90
39677;DHT22;27789;50.840;4.386;2023-04-07T06:59:15;10.00;99.90
39677;DHT22;27789;50.840;4.386;2023-04-07T07:01:41;10.00;99.90
39677;DHT22;27789;50.840;4.386;2023-04-07T07:04:08;10.00;99.90
39677;DHT22;27789;50.840;4.386;2023-04-07T07:06:33;10.00;99.90
39677;DHT22;27789;50.840;4.386;2023-04-07T07:08:59;10.00;99.90
39677;DHT22;27789;50.840;4.386;2023-04-07T07:11:25;9.90;99.90
39677;DHT22;27789;50.840;4.386;2023-04-07T07:13:51;10.00;99.90
39677;DHT22;27789;50.840;4.386;2023-04-07T07:16:16;10.00;99.90
39677;DHT22;27789;50.840;4.386;2023-04-07T07:18:42;9.90;99.90
39677;DHT22;27789;50.840;4.386;2023-04-07T07:21:07;9.90;99.90
39677;DHT22;27789;50.840;4.386;2023-04-07T07:23:33;10.00;99.90
39677;DHT22;27789;50.840;4.386;2023-04-07T07:26:02;9.30;99.90
39677;DHT22;27789;50.840;4.386;2023-04-07T07:28:27;9.90;99.90
39677;DHT22;27789;50.840;4.386;2023-04-07T07:30:53;10.00;99.90
39677;DHT22;27789;50.840;4.386;2023-04-07T07:33:19;10.00;99.90
39677;DHT22;27789;50.840;4.386;2023-04-07T07:35:47;10.10;99.90
39677;DHT22;27789;50.840;4.386;2023-04-07T07:38:12;10.20;99.90
39677;DHT22;27789;50.840;4.386;2023-04-07T07:40:38;10.30;99.90
39677;DHT22;27789;50.840;4.386;2023-04-07T07:43:03;10.30;99.90
39677;DHT22;27789;50.840;4.386;2023-04-07T07:45:29;10.30;99.90
39677;DHT22;27789;50.840;4.386;2023-04-07T07:47:54;10.30;99.90
39677;DHT22;27789;50.840;4.386;2023-04-07T07:50:20;10.40;99.90
39677;DHT22;27789;50.840;4.386;2023-04-07T07:52:45;10.40;99.90
39677;DHT22;27789;50.840;4.386;2023-04-07T07:55:12;10.50;99.90
39677;DHT22;27789;50.840;4.386;2023-04-07T07:57:37;10.50;99.90
39677;DHT22;27789;50.840;4.386;2023-04-07T08:00:03;10.50;99.90
39677;DHT22;27789;50.840;4.386;2023-04-07T08:02:29;10.40;99.90
39677;DHT22;27789;50.840;4.386;2023-04-07T08:04:56;10.30;99.90
39677;DHT22;27789;50.840;4.386;2023-04-07T08:07:22;10.30;99.90
39677;DHT22;27789;50.840;4.386;2023-04-07T08:09:48;10.20;99.90
39677;DHT22;27789;50.840;4.386;2023-04-07T08:12:14;10.20;99.90
39677;DHT22;27789;50.840;4.386;2023-04-07T08:14:39;10.30;99.90
39677;DHT22;27789;50.840;4.386;2023-04-07T08:17:05;10.30;99.90
39677;DHT22;27789;50.840;4.386;2023-04-07T08:19:31;10.30;99.90
39677;DHT22;27789;50.840;4.386;2023-04-07T08:21:56;10.40;99.90
39677;DHT22;27789;50.840;4.386;2023-04-07T08:24:22;10.30;99.90
39677;DHT22;27789;50.840;4.386;2023-04-07T08:26:47;10.40;99.90
39677;DHT22;27789;50.840;4.386;2023-04-07T08:29:13;10.40;99.90
39677;DHT22;27789;50.840;4.386;2023-04-07T08:31:39;10.40;99.90
39677;DHT22;27789;50.840;4.386;2023-04-07T08:34:05;10.40;99.90
39677;DHT22;27789;50.840;4.386;2023-04-07T08:36:31;10.30;99.90
39677;DHT22;27789;50.840;4.386;2023-04-07T08:38:56;10.30;99.90
39677;DHT22;27789;50.840;4.386;2023-04-07T08:41:36;10.40;99.90
39677;DHT22;27789;50.840;4.386;2023-04-07T08:44:02;10.50;99.90
39677;DHT22;27789;50.840;4.386;2023-04-07T08:46:28;10.50;99.90
39677;DHT22;27789;50.840;4.386;2023-04-07T08:48:54;10.50;99.90
39677;DHT22;27789;50.840;4.386;2023-04-07T08:51:26;10.60;99.90
39677;DHT22;27789;50.840;4.386;2023-04-07T08:53:51;10.70;99.90
39677;DHT22;27789;50.840;4.386;2023-04-07T08:56:18;10.70;99.90
39677;DHT22;27789;50.840;4.386;2023-04-07T08:58:46;10.70;99.90
39677;DHT22;27789;50.840;4.386;2023-04-07T09:01:12;10.20;99.90
39677;DHT22;27789;50.840;4.386;2023-04-07T09:03:37;10.90;99.90
39677;DHT22;27789;50.840;4.386;2023-04-07T09:06:03;11.00;99.90
39677;DHT22;27789;50.840;4.386;2023-04-07T09:08:29;11.10;99.90
39677;DHT22;27789;50.840;4.386;2023-04-07T09:10:58;11.20;99.90
39677;DHT22;27789;50.840;4.386;2023-04-07T09:13:23;11.30;99.90
39677;DHT22;27789;50.840;4.386;2023-04-07T09:15:49;11.30;99.90
39677;DHT22;27789;50.840;4.386;2023-04-07T09:18:15;11.50;99.90
39677;DHT22;27789;50.840;4.386;2023-04-07T09:25:56;12.10;99.90
39677;DHT22;27789;50.840;4.386;2023-04-07T09:28:36;12.20;99.90
39677;DHT22;27789;50.840;4.386;2023-04-07T09:31:02;12.40;99.90
39677;DHT22;27789;50.840;4.386;2023-04-07T09:33:28;12.50;99.90
39677;DHT22;27789;50.840;4.386;2023-04-07T09:35:54;12.70;99.90
39677;DHT22;27789;50.840;4.386;2023-04-07T09:38:20;12.90;99.90
39677;DHT22;27789;50.840;4.386;2023-04-07T09:40:45;12.90;99.90
39677;DHT22;27789;50.840;4.386;2023-04-07T09:43:17;12.90;99.90
39677;DHT22;27789;50.840;4.386;2023-04-07T09:45:43;12.80;99.90
39677;DHT22;27789;50.840;4.386;2023-04-07T09:50:45;12.60;99.90
39677;DHT22;27789;50.840;4.386;2023-04-07T09:53:16;12.70;99.90
39677;DHT22;27789;50.840;4.386;2023-04-07T09:55:43;12.70;99.90
39677;DHT22;27789;50.840;4.386;2023-04-07T09:58:12;12.80;99.90
39677;DHT22;27789;50.840;4.386;2023-04-07T10:00:41;12.90;99.90
39677;DHT22;27789;50.840;4.386;2023-04-07T10:03:06;13.00;99.90
39677;DHT22;27789;50.840;4.386;2023-04-07T10:05:32;13.10;99.90
39677;DHT22;27789;50.840;4.386;2023-04-07T10:07:59;13.40;99.90
39677;DHT22;27789;50.840;4.386;2023-04-07T10:10:25;13.50;99.90
39677;DHT22;27789;50.840;4.386;2023-04-07T10:12:51;13.40;99.90
39677;DHT22;27789;50.840;4.386;2023-04-07T10:15:18;13.30;99.90
39677;DHT22;27789;50.840;4.386;2023-04-07T10:17:48;13.30;99.90
39677;DHT22;27789;50.840;4.386;2023-04-07T10:20:16;13.60;99.90
39677;DHT22;27789;50.840;4.386;2023-04-07T10:22:42;13.80;99.90
39677;DHT22;27789;50.840;4.386;2023-04-07T10:25:10;14.20;99.90
39677;DHT22;27789;50.840;4.386;2023-04-07T10:30:34;15.00;99.90
39677;DHT22;27789;50.840;4.386;2023-04-07T10:33:00;15.00;99.90
39677;DHT22;27789;50.840;4.386;2023-04-07T10:35:26;14.70;99.90
39677;DHT22;27789;50.840;4.386;2023-04-07T10:40:29;14.00;99.90
39677;DHT22;27789;50.840;4.386;2023-04-07T10:42:55;13.70;99.90
39677;DHT22;27789;50.840;4.386;2023-04-07T10:45:50;13.40;99.90
39677;DHT22;27789;50.840;4.386;2023-04-07T10:48:10;13.20;99.90
39677;DHT22;27789;50.840;4.386;2023-04-07T10:50:37;13.00;99.90
39677;DHT22;27789;50.840;4.386;2023-04-07T10:53:09;12.90;99.90
39677;DHT22;27789;50.840;4.386;2023-04-07T11:00:38;12.60;99.90
39677;DHT22;27789;50.840;4.386;2023-04-07T11:03:10;12.70;99.90
39677;DHT22;27789;50.840;4.386;2023-04-07T11:05:39;12.70;99.90
39677;DHT22;27789;50.840;4.386;2023-04-07T11:08:05;12.80;99.90
39677;DHT22;27789;50.840;4.386;2023-04-07T11:10:34;12.80;99.90
39677;DHT22;27789;50.840;4.386;2023-04-07T11:13:06;12.70;99.90
39677;DHT22;27789;50.840;4.386;2023-04-07T11:15:32;12.60;99.90
39677;DHT22;27789;50.840;4.386;2023-04-07T11:20:41;12.70;99.90
39677;DHT22;27789;50.840;4.386;2023-04-07T11:23:07;13.20;99.90
39677;DHT22;27789;50.840;4.386;2023-04-07T11:25:33;12.90;99.90
39677;DHT22;27789;50.840;4.386;2023-04-07T11:28:00;13.00;99.90
39677;DHT22;27789;50.840;4.386;2023-04-07T11:30:26;13.00;99.90
39677;DHT22;27789;50.840;4.386;2023-04-07T11:32:52;13.10;99.90
39677;DHT22;27789;50.840;4.386;2023-04-07T11:35:17;13.00;99.90
39677;DHT22;27789;50.840;4.386;2023-04-07T11:37:43;12.90;99.90
39677;DHT22;27789;50.840;4.386;2023-04-07T11:40:08;12.80;99.90
39677;DHT22;27789;50.840;4.386;2023-04-07T11:42:36;12.70;99.90
39677;DHT22;27789;50.840;4.386;2023-04-07T11:45:02;12.60;99.90
39677;DHT22;27789;50.840;4.386;2023-04-07T11:50:05;12.30;99.90
39677;DHT22;27789;50.840;4.386;2023-04-07T11:55:15;12.30;99.90
39677;DHT22;27789;50.840;4.386;2023-04-07T11:57:41;12.30;99.90
39677;DHT22;27789;50.840;4.386;2023-04-07T12:00:10;12.50;99.90
39677;DHT22;27789;50.840;4.386;2023-04-07T12:02:35;12.70;99.90
39677;DHT22;27789;50.840;4.386;2023-04-07T12:05:01;12.90;99.90
39677;DHT22;27789;50.840;4.386;2023-04-07T12:07:27;13.00;99.90
39677;DHT22;27789;50.840;4.386;2023-04-07T12:09:53;13.10;99.90
39677;DHT22;27789;50.840;4.386;2023-04-07T12:12:25;13.40;99.90
39677;DHT22;27789;50.840;4.386;2023-04-07T12:14:51;13.50;99.90
39677;DHT22;27789;50.840;4.386;2023-04-07T12:17:20;13.60;99.90
39677;DHT22;27789;50.840;4.386;2023-04-07T12:19:46;13.50;99.90
39677;DHT22;27789;50.840;4.386;2023-04-07T12:22:11;13.30;99.90
39677;DHT22;27789;50.840;4.386;2023-04-07T12:24:37;13.00;99.90
39677;DHT22;27789;50.840;4.386;2023-04-07T12:27:03;12.80;99.90
39677;DHT22;27789;50.840;4.386;2023-04-07T12:29:28;12.70;99.90
39677;DHT22;27789;50.840;4.386;2023-04-07T12:31:54;12.60;99.90
39677;DHT22;27789;50.840;4.386;2023-04-07T12:34:20;12.60;99.90
39677;DHT22;27789;50.840;4.386;2023-04-07T12:36:46;12.50;99.90
39677;DHT22;27789;50.840;4.386;2023-04-07T12:39:11;12.60;99.90
39677;DHT22;27789;50.840;4.386;2023-04-07T12:41:37;12.60;99.90
39677;DHT22;27789;50.840;4.386;2023-04-07T12:44:03;12.70;99.90
39677;DHT22;27789;50.840;4.386;2023-04-07T12:46:29;12.90;99.90
39677;DHT22;27789;50.840;4.386;2023-04-07T12:48:55;13.00;99.90
39677;DHT22;27789;50.840;4.386;2023-04-07T12:51:21;13.20;99.90
39677;DHT22;27789;50.840;4.386;2023-04-07T12:53:46;13.20;99.90
39677;DHT22;27789;50.840;4.386;2023-04-07T12:56:12;13.40;99.90
39677;DHT22;27789;50.840;4.386;2023-04-07T12:58:38;13.40;99.90
39677;DHT22;27789;50.840;4.386;2023-04-07T13:01:04;13.30;99.90
39677;DHT22;27789;50.840;4.386;2023-04-07T13:03:30;13.10;99.90
39677;DHT22;27789;50.840;4.386;2023-04-07T13:05:55;12.90;99.90
39677;DHT22;27789;50.840;4.386;2023-04-07T13:08:26;12.90;99.90
39677;DHT22;27789;50.840;4.386;2023-04-07T13:10:51;12.80;99.90
39677;DHT22;27789;50.840;4.386;2023-04-07T13:13:17;12.60;99.90
39677;DHT22;27789;50.840;4.386;2023-04-07T13:15:42;12.50;99.90
39677;DHT22;27789;50.840;4.386;2023-04-07T13:18:08;12.50;99.90
39677;DHT22;27789;50.840;4.386;2023-04-07T13:20:33;12.50;99.90
39677;DHT22;27789;50.840;4.386;2023-04-07T13:22:59;12.40;99.90
39677;DHT22;27789;50.840;4.386;2023-04-07T13:25:24;12.40;99.90
39677;DHT22;27789;50.840;4.386;2023-04-07T13:27:50;12.50;99.90
39677;DHT22;27789;50.840;4.386;2023-04-07T13:30:15;12.50;99.90
39677;DHT22;27789;50.840;4.386;2023-04-07T13:32:41;12.60;99.90
39677;DHT22;27789;50.840;4.386;2023-04-07T13:35:07;12.60;99.90
39677;DHT22;27789;50.840;4.386;2023-04-07T13:37:32;12.60;99.90
39677;DHT22;27789;50.840;4.386;2023-04-07T13:39:58;12.50;99.90
39677;DHT22;27789;50.840;4.386;2023-04-07T13:42:23;12.50;99.90
39677;DHT22;27789;50.840;4.386;2023-04-07T13:44:49;12.50;99.90
39677;DHT22;27789;50.840;4.386;2023-04-07T13:47:16;12.50;99.90
39677;DHT22;27789;50.840;4.386;2023-04-07T13:49:45;12.50;99.90
39677;DHT22;27789;50.840;4.386;2023-04-07T13:52:10;12.60;99.90
39677;DHT22;27789;50.840;4.386;2023-04-07T13:54:36;12.70;99.90
39677;DHT22;27789;50.840;4.386;2023-04-07T13:57:02;12.80;99.90
39677;DHT22;27789;50.840;4.386;2023-04-07T13:59:28;12.80;99.90
39677;DHT22;27789;50.840;4.386;2023-04-07T14:01:54;12.80;99.90
39677;DHT22;27789;50.840;4.386;2023-04-07T14:04:19;12.80;99.90
39677;DHT22;27789;50.840;4.386;2023-04-07T14:06:45;12.90;99.90
39677;DHT22;27789;50.840;4.386;2023-04-07T14:09:11;12.80;99.90
39677;DHT22;27789;50.840;4.386;2023-04-07T14:11:36;12.80;99.90
39677;DHT22;27789;50.840;4.386;2023-04-07T14:14:02;12.70;99.90
39677;DHT22;27789;50.840;4.386;2023-04-07T14:16:27;12.70;99.90
39677;DHT22;27789;50.840;4.386;2023-04-07T14:18:53;12.70;99.90
39677;DHT22;27789;50.840;4.386;2023-04-07T14:21:18;12.80;99.90
39677;DHT22;27789;50.840;4.386;2023-04-07T14:23:44;12.80;99.90
39677;DHT22;27789;50.840;4.386;2023-04-07T14:26:10;13.00;99.90
39677;DHT22;27789;50.840;4.386;2023-04-07T14:28:36;13.10;99.90
39677;DHT22;27789;50.840;4.386;2023-04-07T14:31:01;13.10;99.90
39677;DHT22;27789;50.840;4.386;2023-04-07T14:33:27;13.20;99.90
39677;DHT22;27789;50.840;4.386;2023-04-07T14:35:52;13.20;99.90
39677;DHT22;27789;50.840;4.386;2023-04-07T14:38:18;13.20;99.90
39677;DHT22;27789;50.840;4.386;2023-04-07T14:40:48;13.10;99.90
39677;DHT22;27789;50.840;4.386;2023-04-07T14:43:14;13.10;99.90
39677;DHT22;27789;50.840;4.386;2023-04-07T14:45:39;13.00;99.90
39677;DHT22;27789;50.840;4.386;2023-04-07T14:48:05;12.90;99.90
39677;DHT22;27789;50.840;4.386;2023-04-07T14:50:31;12.70;99.90
39677;DHT22;27789;50.840;4.386;2023-04-07T14:52:57;12.60;99.90
39677;DHT22;27789;50.840;4.386;2023-04-07T14:55:23;12.60;99.90
39677;DHT22;27789;50.840;4.386;2023-04-07T14:57:48;12.80;99.90
39677;DHT22;27789;50.840;4.386;2023-04-07T15:00:14;12.80;99.90
39677;DHT22;27789;50.840;4.386;2023-04-07T15:02:39;12.90;99.90
39677;DHT22;27789;50.840;4.386;2023-04-07T15:05:05;12.90;99.90
39677;DHT22;27789;50.840;4.386;2023-04-07T15:07:31;12.90;99.90
39677;DHT22;27789;50.840;4.386;2023-04-07T15:09:56;12.70;99.90
39677;DHT22;27789;50.840;4.386;2023-04-07T15:12:23;12.60;99.90
39677;DHT22;27789;50.840;4.386;2023-04-07T15:14:50;12.50;99.90
39677;DHT22;27789;50.840;4.386;2023-04-07T15:17:16;12.40;99.90
39677;DHT22;27789;50.840;4.386;2023-04-07T15:19:42;12.30;99.90
39677;DHT22;27789;50.840;4.386;2023-04-07T15:22:08;12.20;99.90
39677;DHT22;27789;50.840;4.386;2023-04-07T15:24:34;12.20;99.90
39677;DHT22;27789;50.840;4.386;2023-04-07T15:26:59;12.20;99.90
39677;DHT22;27789;50.840;4.386;2023-04-07T15:29:25;12.20;99.90
39677;DHT22;27789;50.840;4.386;2023-04-07T15:31:50;12.20;99.90
39677;DHT22;27789;50.840;4.386;2023-04-07T15:34:16;12.20;99.90
39677;DHT22;27789;50.840;4.386;2023-04-07T15:36:41;12.20;99.90
39677;DHT22;27789;50.840;4.386;2023-04-07T15:39:07;12.20;99.90
39677;DHT22;27789;50.840;4.386;2023-04-07T15:41:32;12.20;99.90
39677;DHT22;27789;50.840;4.386;2023-04-07T15:43:58;12.20;99.90
39677;DHT22;27789;50.840;4.386;2023-04-07T15:46:24;12.10;99.90
39677;DHT22;27789;50.840;4.386;2023-04-07T15:48:49;12.10;99.90
39677;DHT22;27789;50.840;4.386;2023-04-07T15:51:16;12.20;99.90
39677;DHT22;27789;50.840;4.386;2023-04-07T15:53:41;12.30;99.90
39677;DHT22;27789;50.840;4.386;2023-04-07T15:56:07;12.20;99.90
39677;DHT22;27789;50.840;4.386;2023-04-07T15:58:33;12.20;99.90
39677;DHT22;27789;50.840;4.386;2023-04-07T16:00:58;12.10;99.90
39677;DHT22;27789;50.840;4.386;2023-04-07T16:03:24;12.10;99.90
39677;DHT22;27789;50.840;4.386;2023-04-07T16:05:49;12.10;99.90